createdAt,value
2022-11-05T00:01:51.812Z,95583.39
2022-11-05T00:07:46.922Z,95579.25
2022-11-05T00:10:38.252Z,95588.80
2022-11-05T00:13:44.429Z,95587.29
2022-11-05T00:16:44.983Z,95580.91
2022-11-05T00:22:33.858Z,95582.59
2022-11-05T00:25:28.583Z,95595.08
2022-11-05T00:31:04.524Z,95592.83
2022-11-05T00:36:47.815Z,95600.83
2022-11-05T00:42:41.070Z,95609.41
2022-11-05T00:45:29.975Z,95611.53
2022-11-05T00:50:59.005Z,95610.72
2022-11-05T00:59:17.680Z,95619.36
2022-11-05T01:04:56.233Z,95630.06
2022-11-05T01:07:44.748Z,95631.92
2022-11-05T01:13:13.404Z,95634.04
2022-11-05T01:16:12.455Z,95639.02
2022-11-05T01:21:45.750Z,95644.91
2022-11-05T01:27:17.670Z,95645.55
2022-11-05T01:30:10.773Z,95654.91
2022-11-05T01:35:39.753Z,95653.95
2022-11-05T01:41:09.883Z,95653.26
2022-11-05T01:49:37.693Z,95655.53
2022-11-05T01:55:23.968Z,95656.27
2022-11-05T02:01:03.050Z,95661.12
2022-11-05T02:06:36.130Z,95671.08
2022-11-05T02:09:27.665Z,95670.66
2022-11-05T02:12:16.856Z,95665.09
2022-11-05T02:17:59.498Z,95662.88
2022-11-05T02:24:03.356Z,95657.63
2022-11-05T02:27:04.447Z,95661.38
2022-11-05T02:33:12.327Z,95666.69
2022-11-05T02:38:49.992Z,95671.52
2022-11-05T02:44:32.572Z,95678.02
2022-11-05T02:50:10.649Z,95678.13
2022-11-05T02:55:50.344Z,95677.83
2022-11-05T03:01:20.197Z,95679.09
2022-11-05T03:04:13.070Z,95673.98
2022-11-05T03:10:32.917Z,95674.16
2022-11-05T03:16:07.057Z,95682.13
2022-11-05T03:22:09.838Z,95685.27
2022-11-05T03:25:01.461Z,95698.78
2022-11-05T03:30:44.018Z,95701.03
2022-11-05T03:36:24.338Z,95699.51
2022-11-05T03:42:08.086Z,95703.81
2022-11-05T03:47:51.123Z,95718.37
2022-11-05T03:53:34.374Z,95727.27
2022-11-05T03:59:15.168Z,95734.27
2022-11-05T04:05:03.432Z,95734.27
2022-11-05T04:11:05.526Z,95740.94
2022-11-05T04:13:53.962Z,95744.62
2022-11-05T04:17:00.341Z,95752.20
2022-11-05T04:20:11.888Z,95745.21
2022-11-05T04:29:49.264Z,95759.84
2022-11-05T04:35:26.738Z,95755.10
2022-11-05T04:38:16.035Z,95760.66
2022-11-05T04:43:58.008Z,95760.51
2022-11-05T04:46:46.227Z,95771.47
2022-11-05T04:49:34.611Z,95774.50
2022-11-05T04:52:22.504Z,95772.44
2022-11-05T04:55:13.282Z,95781.13
2022-11-05T05:01:04.532Z,95778.42
2022-11-05T05:06:39.801Z,95790.63
2022-11-05T05:09:28.152Z,95790.11
2022-11-05T05:12:17.275Z,95790.50
2022-11-05T05:15:06.652Z,95787.93
2022-11-05T05:17:59.713Z,95787.36
2022-11-05T05:24:14.338Z,95793.82
2022-11-05T05:29:43.681Z,95801.11
2022-11-05T05:35:13.386Z,95798.73
2022-11-05T05:38:02.542Z,95803.16
2022-11-05T05:43:52.124Z,95802.73
2022-11-05T05:49:30.220Z,95802.41
2022-11-05T05:52:18.484Z,95798.66
2022-11-05T05:57:57.204Z,95807.16
2022-11-05T06:03:39.988Z,95815.19
2022-11-05T06:13:22.877Z,95825.06
2022-11-05T06:16:41.418Z,95827.19
2022-11-05T06:19:49.763Z,95832.83
2022-11-05T06:22:45.636Z,95836.72
2022-11-05T06:25:44.724Z,95840.64
2022-11-05T06:28:33.506Z,95840.52
2022-11-05T06:31:24.759Z,95846.94
2022-11-05T06:34:12.968Z,95854.03
2022-11-05T06:39:46.489Z,95856.73
2022-11-05T06:42:34.774Z,95865.54
2022-11-05T06:45:23.201Z,95866.14
2022-11-05T06:50:59.652Z,95881.91
2022-11-05T06:53:47.850Z,95877.41
2022-11-05T06:59:21.109Z,95894.39
2022-11-05T07:10:54.492Z,95906.13
2022-11-05T07:13:58.836Z,95913.25
2022-11-05T07:22:21.924Z,95927.92
2022-11-05T07:27:55.102Z,95940.44
2022-11-05T07:33:32.313Z,95940.48
2022-11-05T07:36:18.291Z,95950.38
2022-11-05T07:39:07.575Z,95954.44
2022-11-05T07:44:42.064Z,95961.21
2022-11-05T07:50:13.587Z,95962.80
2022-11-05T07:55:58.772Z,95971.66
2022-11-05T08:01:28.189Z,95980.38
2022-11-05T08:07:04.691Z,95983.75
2022-11-05T08:09:53.714Z,95985.59
2022-11-05T08:15:28.873Z,95988.66
2022-11-05T08:18:18.342Z,95991.61
2022-11-05T08:24:01.239Z,95991.63
2022-11-05T08:29:33.721Z,95992.64
2022-11-05T08:35:10.154Z,95996.03
2022-11-05T08:40:40.095Z,95995.46
2022-11-05T08:43:29.158Z,95998.86
2022-11-05T08:49:08.470Z,96006.11
2022-11-05T08:54:44.614Z,96009.39
2022-11-05T09:00:21.336Z,96021.37
2022-11-05T09:03:11.388Z,96020.42
2022-11-05T09:05:59.968Z,96024.28
2022-11-05T09:08:49.370Z,96026.98
2022-11-05T09:14:18.517Z,96032.06
2022-11-05T09:17:15.145Z,96030.22
2022-11-05T09:22:46.222Z,96028.97
2022-11-05T09:25:35.744Z,96034.19
2022-11-05T09:31:21.358Z,96035.20
2022-11-05T09:34:10.208Z,96040.25
2022-11-05T09:37:03.321Z,96046.23
2022-11-05T09:42:47.172Z,96050.02
2022-11-05T09:48:29.100Z,96055.82
2022-11-05T09:51:23.646Z,96061.09
2022-11-05T09:56:56.198Z,96070.38
2022-11-05T10:02:53.495Z,96070.66
2022-11-05T10:05:43.304Z,96075.30
2022-11-05T10:11:29.049Z,96079.36
2022-11-05T10:14:20.880Z,96081.33
2022-11-05T10:19:53.642Z,96072.76
2022-11-05T10:25:25.623Z,96090.50
2022-11-05T10:31:02.173Z,96101.99
2022-11-05T10:36:38.970Z,96100.58
2022-11-05T10:39:30.336Z,96096.67
2022-11-05T10:42:33.796Z,96098.50
2022-11-05T10:45:28.928Z,96103.84
2022-11-05T10:48:44.289Z,96100.23
2022-11-05T10:51:33.892Z,96098.66
2022-11-05T10:54:25.351Z,96105.29
2022-11-05T11:00:31.026Z,96102.15
2022-11-05T11:03:42.415Z,96099.19
2022-11-05T11:09:20.773Z,96097.63
2022-11-05T11:15:04.645Z,96099.70
2022-11-05T11:17:53.331Z,96096.17
2022-11-05T11:20:45.026Z,96098.97
2022-11-05T11:23:42.614Z,96099.83
2022-11-05T11:29:34.866Z,96103.02
2022-11-05T11:41:08.011Z,96099.92
2022-11-05T11:46:41.643Z,96098.45
2022-11-05T11:52:27.528Z,96105.53
2022-11-05T12:01:01.875Z,96111.94
2022-11-05T12:06:36.516Z,96111.11
2022-11-05T12:12:15.443Z,96104.67
2022-11-05T12:15:09.444Z,96103.66
2022-11-05T12:18:02.398Z,96106.91
2022-11-05T12:24:14.470Z,96105.48
2022-11-05T12:29:58.865Z,96101.43
2022-11-05T12:35:52.109Z,96095.08
2022-11-05T12:53:14.543Z,96094.05
2022-11-05T12:56:06.333Z,96090.48
2022-11-05T12:58:58.236Z,96091.92
2022-11-05T13:04:31.291Z,96086.54
2022-11-05T13:10:04.682Z,96092.19
2022-11-05T13:15:38.518Z,96086.65
2022-11-05T13:21:12.280Z,96090.72
2022-11-05T13:26:49.199Z,96098.28
2022-11-05T13:32:28.735Z,96121.14
2022-11-05T13:38:27.951Z,96116.97
2022-11-05T13:44:48.861Z,96099.31
2022-11-05T13:51:03.141Z,96102.62
2022-11-05T13:54:56.288Z,96105.97
2022-11-05T14:01:07.330Z,96098.45
2022-11-05T14:07:07.988Z,96092.49
2022-11-05T14:12:47.162Z,96101.45
2022-11-05T14:18:37.141Z,96094.50
2022-11-05T14:30:42.680Z,96099.92
2022-11-05T14:52:56.350Z,96101.37
2022-11-05T14:58:44.925Z,96117.52
2022-11-05T15:05:17.129Z,96122.70
2022-11-05T15:08:32.836Z,96125.00
2022-11-05T15:11:24.522Z,96123.77
2022-11-05T15:17:13.637Z,96117.70
2022-11-05T15:20:15.146Z,96119.91
2022-11-05T15:25:56.005Z,96119.14
2022-11-05T15:31:39.955Z,96135.05
2022-11-05T15:34:31.316Z,96137.52
2022-11-05T15:37:24.909Z,96136.35
2022-11-05T15:40:25.353Z,96134.83
2022-11-05T15:46:18.552Z,96138.25
2022-11-05T15:49:08.794Z,96140.53
2022-11-05T15:51:57.814Z,96149.42
2022-11-05T15:54:46.436Z,96150.52
2022-11-05T15:57:40.076Z,96148.06
2022-11-05T16:00:29.382Z,96155.37
2022-11-05T16:03:22.436Z,96148.68
2022-11-05T16:06:11.211Z,96151.91
2022-11-05T16:08:59.031Z,96149.69
2022-11-05T16:11:48.304Z,96142.80
2022-11-05T16:17:24.764Z,96144.84
2022-11-05T16:25:57.145Z,96146.16
2022-11-05T16:31:52.427Z,96151.09
2022-11-05T16:37:26.343Z,96148.56
2022-11-05T16:40:17.823Z,96148.98
2022-11-05T16:46:04.943Z,96146.26
2022-11-05T16:51:43.781Z,96150.23
2022-11-05T16:57:19.595Z,96160.13
2022-11-05T17:00:27.217Z,96156.04
2022-11-05T17:03:16.695Z,96168.63
2022-11-05T17:06:05.368Z,96169.30
2022-11-05T17:11:42.266Z,96175.38
2022-11-05T17:17:23.557Z,96187.55
2022-11-05T17:20:15.350Z,96184.95
2022-11-05T17:25:50.433Z,96183.59
2022-11-05T17:31:27.180Z,96175.81
2022-11-05T17:37:04.445Z,96178.67
2022-11-05T17:42:58.683Z,96182.94
2022-11-05T17:45:49.866Z,96183.36
2022-11-05T17:51:25.527Z,96182.13
2022-11-05T17:57:00.326Z,96194.66
2022-11-05T18:05:25.062Z,96192.20
2022-11-05T18:08:13.902Z,96194.54
2022-11-05T18:13:44.116Z,96204.75
2022-11-05T18:19:20.140Z,96211.30
2022-11-05T18:24:58.516Z,96219.17
2022-11-05T18:30:41.612Z,96219.59
2022-11-05T18:36:27.742Z,96220.46
2022-11-05T18:39:15.955Z,96216.16
2022-11-05T18:44:53.228Z,96219.38
2022-11-05T18:50:30.324Z,96205.48
2022-11-05T18:53:19.388Z,96207.08
2022-11-05T18:59:35.199Z,96203.09
2022-11-05T19:02:01.407Z,96197.57
2022-11-05T19:07:33.525Z,96192.77
2022-11-05T19:13:07.905Z,96189.37
2022-11-05T19:15:57.562Z,96193.77
2022-11-05T19:21:34.819Z,96192.62
2022-11-05T19:27:07.774Z,96192.77
2022-11-05T19:29:56.293Z,96186.93
2022-11-05T19:35:33.698Z,96189.75
2022-11-05T19:41:12.499Z,96185.01
2022-11-05T19:46:44.857Z,96174.13
2022-11-05T19:52:19.716Z,96187.17
2022-11-05T19:55:12.269Z,96194.24
2022-11-05T19:58:00.621Z,96195.91
2022-11-05T20:06:38.765Z,96200.48
2022-11-05T20:09:31.113Z,96211.19
2022-11-05T20:12:19.485Z,96211.87
2022-11-05T20:15:09.517Z,96206.30
2022-11-05T20:17:58.189Z,96204.45
2022-11-05T20:23:37.531Z,96213.73
2022-11-05T20:26:42.992Z,96209.69
2022-11-05T20:32:15.326Z,96218.53
2022-11-05T20:37:54.149Z,96218.09
2022-11-05T20:43:55.386Z,96228.25
2022-11-05T20:49:33.512Z,96228.48
2022-11-05T20:55:12.475Z,96225.51
2022-11-05T21:00:58.286Z,96220.88
2022-11-05T21:06:38.330Z,96236.95
2022-11-05T21:09:27.272Z,96228.68
2022-11-05T21:12:15.504Z,96231.62
2022-11-05T21:15:07.054Z,96235.52
2022-11-05T21:20:44.517Z,96220.52
2022-11-05T21:23:32.608Z,96220.42
2022-11-05T21:26:21.095Z,96225.34
2022-11-05T21:34:40.454Z,96217.58
2022-11-05T21:40:17.066Z,96206.64
2022-11-05T21:43:06.476Z,96206.80
2022-11-05T21:51:46.273Z,96192.96
2022-11-05T21:57:45.880Z,96195.61
2022-11-05T22:03:34.884Z,96193.97
2022-11-05T22:09:21.005Z,96198.78
2022-11-05T22:14:55.323Z,96205.55
2022-11-05T22:20:46.020Z,96199.48
2022-11-05T22:29:12.196Z,96201.64
2022-11-05T22:32:01.264Z,96202.66
2022-11-05T22:37:37.175Z,96197.75
2022-11-05T22:40:27.101Z,96199.59
2022-11-05T22:43:15.467Z,96198.25
2022-11-05T22:48:52.547Z,96200.45
2022-11-05T22:54:28.767Z,96197.55
2022-11-05T23:00:04.029Z,96198.67
2022-11-05T23:02:53.453Z,96189.45
2022-11-05T23:05:41.886Z,96184.33
2022-11-05T23:11:38.858Z,96193.61
2022-11-05T23:17:36.275Z,96196.81
2022-11-05T23:20:44.692Z,96184.33
2022-11-05T23:39:13.207Z,96159.87
2022-11-05T23:42:35.864Z,96159.48
2022-11-05T23:45:47.652Z,96159.32
2022-11-05T23:48:37.735Z,96162.69
2022-11-05T23:54:24.369Z,96165.28
2022-11-05T23:57:21.204Z,96166.94
